AirNav   Everest Fuels
 
 1275 users online  

9FL6 Land South Heliport
Mulberry, Florida, USA

GOING TO MULBERRY?


FAA INFORMATION EFFECTIVE 07 NOVEMBER 2019

Location

FAA Identifier: 9FL6
Lat/Long: 27-51-59.0000N 081-58-10.0000W
27-51.983333N 081-58.166667W
27.8663889,-81.9694444
(estimated)
Elevation: 136 ft. / 41 m (estimated)
From city: 1 mile S of MULBERRY, FL
Time zone: UTC -5 (UTC -4 during Daylight Saving Time)
Zip code: 33860

Heliport Operations

Heliport use: Private use. Permission required prior to landing
Activation date: 03/2006
Control tower: no
ARTCC: MIAMI CENTER
FSS: SAINT PETERSBURG FLIGHT SERVICE STATION
Attendance: UNATNDD
Wind indicator: yes
Segmented circle: no

Heliport Communications

WX AWOS-3PT at LAL (8 nm N): 118.025 (863-834-2030)
WX AWOS-3 at BOW (11 nm NE): 123.775 (863-533-9004)
WX AWOS-3 at PCM (13 nm NW): 120.025 (813-764-8259)
WX ASOS at GIF (16 nm NE): 133.675 (863-956-2097)
WX AWOS-3 at X07 (19 nm E): 124.225 (863-678-1334)

Nearby radio navigation aids

VOR radial/distance  VOR name  Freq  Var
LALr161/7.6LAKELAND VORTAC116.0001E
PIEr099/38.0ST PETERSBURG VORTAC116.4005W

Heliport Services

Runway Information

Helipad H1

Dimensions: 90 x 24 ft. / 27 x 7 m
Surface: asphalt
Runway edge lights: non-standard
OWNER DOES NOT DESIRE CHARTING.
Traffic pattern: leftleft

Heliport Ownership and Management from official FAA records

Ownership: Privately-owned
Owner: BULLAND VENTURES
4030 S PIPKIN RD
LAKELAND, FL 33807
Phone 863-607-9500
Manager: ROB HARPER IV
PO BOX 6165
LAKELAND, FL 33807
Phone (863) 937-8867

Heliport Operational Statistics

Aircraft based on the field: 1
Helicopters: 1
    

Additional Remarks

FOR CD CTC TAMPA APCH AT 813-878-2528

Instrument Procedures

There are no published instrument procedures at 9FL6.

Some nearby airports with instrument procedures:

KLAL - Lakeland Linder International Airport (8 nm N)
KBOW - Bartow Executive Airport (11 nm NE)
KPCM - Plant City Airport (13 nm NW)
KGIF - Winter Haven Regional Airport (16 nm NE)
X07 - Lake Wales Municipal Airport (19 nm E)
 
Loc | Ops | Rwys | IFR | FBO | Links
Com | Nav | Svcs | Stats | Notes

Reliance Aviation
AirBoss

 
Area around 9FL6 (Land South Heliport)
 
Road maps at: MapQuest Bing Google
 
Aerial photo
No photo
 
Sectional chart

 
Airport distance calculator
Flying to Land South Heliport? Find the distance to fly.

From to 9FL6

Sunrise and sunset
Times for 15-Nov-2019
 Local
(UTC-5)
 Zulu
(UTC)
Morning civil twilight06:2611:26
Sunrise06:5011:50
Sunset17:3522:35
Evening civil twilight17:5922:59

Current date and time
Zulu (UTC)  15-Nov-2019 20:14:25
Local (UTC-5)  15-Nov-2019 15:14:25
 
METAR
KLAL 
7nm NW 
151950Z 29012KT 10SM OVC016 21/17 A2992
KBOW 
11nm E 
151950Z 30012KT 10SM BKN017 23/19 A2990
KPCM 
13nm NW 
151955Z AUTO 31008KT 10SM OVC008 19/18 A2995 RMK AO2
KGIF 
17nm NE 
151953Z AUTO 30010KT 10SM FEW017 BKN022 OVC085 23/18 A2991 RMK AO2 SLP124 T02280183
KX07 
19nm E 
151955Z AUTO 29011KT 10SM SCT020 BKN080 23/19 A2991 RMK A01
TAF
KLAL 
7nm NW 
151740Z 1518/1618 32007KT P6SM SCT015 OVC025 FM160200 32006KT P6SM VCSH SCT015 OVC025 FM160600 32011KT P6SM OVC015 FM161400 34012G17KT P6SM BKN025
NOTAMs
Click for the latest NOTAMs
NOTAMs are issued by the DoD/FAA and will open in a separate window not controlled by AirNav.

 

 
 

Would you like to see your business listed on this page?

 If your business provides an interesting product or service to pilots, flight crews, aircraft, or users of the Land South Heliport, you should consider listing it here.  To start the listing process, click on the button below
 
Add a business
 

Other Pages about Land South Heliport

Update a link
 
Copyright © AirNav, LLC. All rights reserved. Privacy Policy  Contact